Time;durP1;ratioP1;P1;durP2;ratioP2;P2;SDS_P1;SDS_P2;PMS_P1;PMS_P2;Temp;Humidity;BMP_temperature;BMP_pressure;BME280_temperature;BME280_humidity;BME280_pressure;Samples;Min_cycle;Max_cycle;Signal;HPM_P1;HPM_P2
2021/03/30 12:58:13;;;;;;;7.88;2.53;;;34.30;34.80;;;;;;5129303;27;20314;-80
2021/03/30 13:00:39;;;;;;;6.57;2.70;;;;;;;;;;5096077;28;20036;-79
2021/03/30 13:03:05;;;;;;;5.60;2.55;;;33.40;36.30;;;;;;5108531;28;20036;-80
2021/03/30 13:05:31;;;;;;;5.28;2.17;;;33.40;34.20;;;;;;5097550;28;20032;-79
2021/03/30 13:07:57;;;;;;;6.32;2.22;;;33.50;33.50;;;;;;5108918;28;20109;-77
2021/03/30 13:10:23;;;;;;;7.13;2.30;;;;;;;;;;5108827;28;20038;-77
2021/03/30 13:12:49;;;;;;;6.05;2.97;;;;;;;;;;5107168;28;20092;-79
2021/03/30 13:15:15;;;;;;;4.50;2.05;;;;;;;;;;5111055;28;20024;-79
2021/03/30 13:17:41;;;;;;;7.20;2.08;;;;;;;;;;5111701;28;20043;-79
2021/03/30 13:20:08;;;;;;;5.25;2.20;;;;;;;;;;5104493;28;20034;-79
2021/03/30 13:22:34;;;;;;;7.50;2.17;;;;;;;;;;5092432;28;20535;-80
2021/03/30 13:25:02;;;;;;;4.68;2.20;;;;;;;;;;5079880;28;20031;-78
2021/03/30 13:27:28;;;;;;;8.35;2.10;;;;;;;;;;5107794;28;20020;-78
2021/03/30 13:29:55;;;;;;;3.67;2.08;;;;;;;;;;5107737;28;20030;-78
2021/03/30 13:32:21;;;;;;;3.78;1.83;;;;;;;;;;5106720;28;20103;-78
2021/03/30 13:34:47;;;;;;;3.65;2.08;;;;;;;;;;5108133;28;20054;-78
2021/03/30 13:37:14;;;;;;;7.60;2.28;;;;;;;;;;5106363;28;20466;-76
2021/03/30 13:39:41;;;;;;;8.27;2.28;;;;;;;;;;5107516;28;20103;-77
2021/03/30 13:42:07;;;;;;;4.90;2.70;;;;;;;;;;5106058;28;20055;-78
2021/03/30 13:44:33;;;;;;;3.47;2.10;;;33.30;33.10;;;;;;5107530;28;20027;-76
2021/03/30 13:47:00;;;;;;;4.75;2.05;;;34.60;33.00;;;;;;5107571;28;20059;-77
2021/03/30 13:49:28;;;;;;;9.02;1.92;;;34.40;31.50;;;;;;5107643;28;20023;-76
2021/03/30 13:51:54;;;;;;;6.57;2.55;;;34.20;32.30;;;;;;5106137;28;20480;-77
2021/03/30 13:54:22;;;;;;;4.13;1.80;;;34.90;32.40;;;;;;5097096;28;20032;-76
2021/03/30 13:56:47;;;;;;;4.00;2.47;;;35.70;32.40;;;;;;5107071;28;20043;-77
2021/03/30 13:59:14;;;;;;;11.15;2.65;;;36.10;31.10;;;;;;5107117;28;20028;-77
2021/03/30 14:01:41;;;;;;;6.20;3.63;;;36.30;32.30;;;;;;5105684;28;20032;-77
2021/03/30 14:04:07;;;;;;;4.78;2.30;;;36.20;30.40;;;;;;5107427;28;20495;-77
2021/03/30 14:06:33;;;;;;;7.50;2.08;;;35.80;30.80;;;;;;5106604;28;20032;-77
2021/03/30 14:08:59;;;;;;;3.85;2.08;;;35.40;30.90;;;;;;5097086;28;20027;-77
2021/03/30 14:11:35;;;;;;;8.45;2.00;;;36.30;30.10;;;;;;5093034;28;20429;-78
2021/03/30 14:14:12;;;;;;;5.15;2.10;;;36.50;30.30;;;;;;5091742;28;20079;-78
2021/03/30 14:17:12;;;;;;;6.88;1.95;;;36.40;29.70;;;;;;5092626;28;20395;-78
2021/03/30 14:19:55;;;;;;;7.82;1.95;;;37.30;29.80;;;;;;5090782;28;20115;-79
2021/03/30 14:22:23;;;;;;;6.15;1.95;;;37.40;29.90;;;;;;5090097;28;20032;-78
2021/03/30 14:25:13;;;;;;;4.25;2.17;;;36.40;29.20;;;;;;5089150;28;20127;-78
2021/03/30 14:27:40;;;;;;;4.63;2.10;;;35.30;29.60;;;;;;5093412;28;20535;-77
2021/03/30 14:30:07;;;;;;;8.23;2.33;;;35.00;30.10;;;;;;5085769;28;20627;-78
2021/03/30 14:32:33;;;;;;;3.25;2.25;;;35.50;29.60;;;;;;5091827;28;20417;-78
2021/03/30 14:35:00;;;;;;;7.20;2.45;;;36.50;29.60;;;;;;5093284;28;20024;-78
2021/03/30 14:37:30;;;;;;;5.07;2.78;;;37.00;29.50;;;;;;5093392;28;20031;-78
2021/03/30 14:40:13;;;;;;;6.32;2.25;;;37.30;29.50;;;;;;5093375;28;20039;-78
2021/03/30 14:42:41;;;;;;;5.43;1.77;;;37.40;29.10;;;;;;5091492;28;20493;-78
2021/03/30 14:53:16;;;;;;;9.38;2.50;;;36.40;29.40;;;;;;5087196;28;20554;-77
2021/03/30 14:55:45;;;;;;;4.80;1.80;;;36.40;29.00;;;;;;5093125;28;20128;-77
2021/03/30 14:58:21;;;;;;;5.28;1.63;;;36.70;29.00;;;;;;5087164;28;20031;-77
2021/03/30 15:05:57;;;;;;;5.93;2.17;;;36.00;29.00;;;;;;5092897;28;20115;-78
2021/03/30 15:08:23;;;;;;;5.07;2.25;;;35.50;28.90;;;;;;5082373;28;20073;-77
2021/03/30 15:10:48;;;;;;;6.00;2.00;;;36.00;29.50;;;;;;5070250;28;20073;-77
2021/03/30 15:13:14;;;;;;;3.90;1.90;;;35.60;28.50;;;;;;5090824;28;20032;-77
2021/03/30 15:15:40;;;;;;;3.70;1.83;;;36.30;28.60;;;;;;5092446;28;20488;-77
2021/03/30 15:18:07;;;;;;;4.35;2.30;;;35.80;28.50;;;;;;5092314;28;20032;-77
2021/03/30 15:20:33;;;;;;;5.28;1.80;;;35.30;28.80;;;;;;5089025;28;20048;-77
2021/03/30 15:22:59;;;;;;;4.40;1.85;;;35.10;29.40;;;;;;5093657;28;20493;-78
2021/03/30 15:25:25;;;;;;;4.75;1.88;;;34.70;28.40;;;;;;5090743;28;20046;-78
2021/03/30 15:27:50;;;;;;;4.03;1.90;;;35.10;28.80;;;;;;5093948;28;20099;-78
2021/03/30 15:30:17;;;;;;;4.53;1.60;;;35.80;28.60;;;;;;5091986;28;20103;-79
2021/03/30 15:32:43;;;;;;;3.67;1.80;;;36.20;28.20;;;;;;5090687;28;20028;-77
2021/03/30 15:35:10;;;;;;;4.35;1.70;;;35.90;28.10;;;;;;5062669;28;20055;-77
2021/03/30 15:37:36;;;;;;;5.75;1.92;;;35.70;28.00;;;;;;5091654;28;20030;-77
2021/03/30 15:40:05;;;;;;;4.88;2.00;;;36.10;28.60;;;;;;5091645;28;20461;-79
2021/03/30 15:42:31;;;;;;;5.10;1.90;;;35.20;28.90;;;;;;5090019;28;20020;-78
2021/03/30 15:47:32;;;;;;;4.88;1.58;;;35.20;28.70;;;;;;5091860;28;20043;-77
2021/03/30 15:50:06;;;;;;;6.72;1.70;;;35.60;28.90;;;;;;5092808;28;20031;-78
2021/03/30 15:52:31;;;;;;;4.20;1.73;;;35.70;29.10;;;;;;5068864;28;20016;-78
2021/03/30 15:57:23;;;;;;;4.55;1.90;;;35.10;29.00;;;;;;5088055;28;20036;-78
2021/03/30 15:59:49;;;;;;;5.90;1.80;;;34.90;28.70;;;;;;5090643;28;20036;-79
2021/03/30 16:02:16;;;;;;;5.13;1.55;;;34.30;29.10;;;;;;5090252;28;20220;-78
2021/03/30 16:04:47;;;;;;;8.60;1.90;;;34.50;28.90;;;;;;5092069;28;20024;-78
2021/03/30 16:07:15;;;;;;;6.35;1.90;;;35.00;29.10;;;;;;5091458;28;20024;-79
2021/03/30 16:09:41;;;;;;;4.05;1.55;;;35.00;29.10;;;;;;5091268;28;20028;-77
2021/03/30 16:12:08;;;;;;;4.30;1.40;;;35.40;29.20;;;;;;5089788;28;20108;-77
2021/03/30 16:14:37;;;;;;;6.28;1.30;;;34.90;28.90;;;;;;5090895;28;20016;-78
2021/03/30 16:17:03;;;;;;;5.80;1.92;;;34.40;28.60;;;;;;5090496;28;20047;-79
2021/03/30 16:19:29;;;;;;;5.13;1.65;;;33.90;29.00;;;;;;5067672;28;20045;-75
2021/03/30 16:21:55;;;;;;;4.95;1.60;;;33.90;29.40;;;;;;5089719;28;20125;-76
2021/03/30 16:24:21;;;;;;;6.40;1.73;;;33.70;30.10;;;;;;5087104;28;20028;-77
2021/03/30 16:26:47;;;;;;;9.35;1.63;;;33.50;29.70;;;;;;5090593;28;20051;-77
2021/03/30 16:29:12;;;;;;;6.78;1.60;;;33.20;29.40;;;;;;5090687;28;20012;-77
2021/03/30 16:31:39;;;;;;;6.30;1.70;;;33.00;29.60;;;;;;5082009;28;20038;-77
2021/03/30 16:34:06;;;;;;;4.45;1.90;;;32.60;29.60;;;;;;5083341;28;20028;-76
2021/03/30 16:36:31;;;;;;;2.70;1.55;;;32.40;29.80;;;;;;5090850;28;20081;-77
2021/03/30 16:38:57;;;;;;;6.53;1.42;;;32.70;30.20;;;;;;5086082;28;20032;-77
2021/03/30 16:41:23;;;;;;;4.05;1.38;;;32.70;29.70;;;;;;5088302;28;20628;-77
2021/03/30 16:43:50;;;;;;;6.40;1.88;;;32.80;30.00;;;;;;5081330;28;20556;-77
2021/03/30 16:46:16;;;;;;;5.57;1.70;;;32.50;29.90;;;;;;5072751;28;20032;-78
2021/03/30 16:48:42;;;;;;;7.03;2.40;;;32.30;30.50;;;;;;5092483;28;20058;-78
2021/03/30 16:51:20;;;;;;;3.25;1.58;;;32.10;30.00;;;;;;5091737;28;20051;-78
2021/03/30 16:53:46;;;;;;;2.90;1.40;;;32.10;30.00;;;;;;5085003;28;20028;-77
2021/03/30 16:56:12;;;;;;;8.27;1.75;;;31.20;30.00;;;;;;5085521;28;20107;-76
2021/03/30 16:58:38;;;;;;;7.45;1.77;;;31.00;30.30;;;;;;5085860;28;20122;-76
2021/03/30 17:01:04;;;;;;;4.82;1.50;;;30.80;30.70;;;;;;5072512;28;20017;-78
2021/03/30 17:03:30;;;;;;;6.70;1.70;;;31.50;31.10;;;;;;5087588;28;20024;-76
2021/03/30 17:05:55;;;;;;;5.22;1.90;;;30.50;31.30;;;;;;5090612;28;20031;-76
2021/03/30 17:08:21;;;;;;;5.53;1.58;;;30.30;31.20;;;;;;5089643;28;20027;-77
2021/03/30 17:10:47;;;;;;;4.90;2.15;;;30.20;31.50;;;;;;5091236;28;20022;-78
2021/03/30 17:13:13;;;;;;;6.35;1.98;;;30.20;31.50;;;;;;5079605;28;20028;-78
2021/03/30 17:15:39;;;;;;;9.30;2.10;;;29.70;31.80;;;;;;5070934;28;20524;-77
2021/03/30 17:18:05;;;;;;;9.45;2.50;;;29.60;32.20;;;;;;5078897;28;20028;-77
2021/03/30 17:20:30;;;;;;;3.20;1.90;;;29.30;32.60;;;;;;5091108;28;20492;-76
2021/03/30 17:22:56;;;;;;;6.28;2.20;;;28.90;31.90;;;;;;5071941;28;20032;-76
2021/03/30 17:25:22;;;;;;;4.50;1.77;;;28.50;33.00;;;;;;5090954;28;20028;-76
2021/03/30 17:27:48;;;;;;;4.47;2.35;;;28.00;33.70;;;;;;5090915;28;20038;-78
2021/03/30 17:30:16;;;;;;;4.65;2.00;;;27.50;33.70;;;;;;5106520;28;20032;-77
2021/03/30 17:32:42;;;;;;;4.97;1.90;;;26.90;33.60;;;;;;5105284;28;20024;-74
2021/03/30 17:35:09;;;;;;;5.55;1.80;;;;;;;;;;5090641;28;20428;-74
2021/03/30 17:37:35;;;;;;;6.85;2.50;;;26.30;35.00;;;;;;5091053;28;20024;-76
2021/03/30 17:40:01;;;;;;;4.78;2.15;;;;;;;;;;5090343;28;20030;-76
2021/03/30 17:42:28;;;;;;;4.43;2.33;;;;;;;;;;5090235;28;20391;-76
2021/03/30 17:44:53;;;;;;;6.30;2.70;;;24.50;37.40;;;;;;5093775;28;20020;-76
2021/03/30 17:47:20;;;;;;;3.70;2.22;;;22.80;39.50;;;;;;5094077;28;20024;-76
2021/03/30 17:49:45;;;;;;;5.63;2.15;;;22.20;40.50;;;;;;5095950;28;20110;-83
2021/03/30 17:52:11;;;;;;;6.00;2.33;;;21.80;41.00;;;;;;5097261;28;20018;-78
2021/03/30 17:54:38;;;;;;;10.57;3.72;;;21.50;42.40;;;;;;5060373;28;20400;-79
2021/03/30 17:57:04;;;;;;;10.15;5.30;;;;;;;;;;5094843;28;20050;-78
2021/03/30 17:59:30;;;;;;;12.38;6.55;;;;;;;;;;5092609;28;20035;-80
2021/03/30 18:01:56;;;;;;;13.50;6.68;;;;;;;;;;5091373;28;20032;-77
2021/03/30 18:04:22;;;;;;;16.55;7.18;;;;;;;;;;5094555;28;20036;-78
2021/03/30 18:06:48;;;;;;;10.02;6.57;;;21.10;42.50;;;;;;5096465;28;20065;-77
2021/03/30 18:09:14;;;;;;;10.43;6.53;;;19.90;47.40;;;;;;5104448;28;20049;-78
2021/03/30 18:11:42;;;;;;;9.13;5.70;;;19.60;48.70;;;;;;5114200;28;20020;-77
2021/03/30 18:14:08;;;;;;;9.70;5.60;;;19.30;48.60;;;;;;5109587;28;20030;-76
2021/03/30 18:16:37;;;;;;;12.00;5.13;;;19.00;49.40;;;;;;5089689;28;20093;-76
2021/03/30 18:19:03;;;;;;;10.32;5.70;;;18.70;51.60;;;;;;5089751;28;20062;-78
2021/03/30 18:21:29;;;;;;;10.18;5.50;;;18.50;51.90;;;;;;5069768;28;20060;-77
2021/03/30 18:23:55;;;;;;;9.73;4.50;;;18.40;53.50;;;;;;5088316;28;20104;-78
2021/03/30 18:26:20;;;;;;;8.45;4.03;;;18.10;52.80;;;;;;5090595;28;20073;-79
2021/03/30 18:28:46;;;;;;;6.55;3.65;;;17.90;53.00;;;;;;5092734;28;20020;-79
2021/03/30 18:31:12;;;;;;;10.40;4.60;;;17.70;54.70;;;;;;5076994;28;20024;-80
2021/03/30 18:33:37;;;;;;;10.68;5.00;;;17.50;55.00;;;;;;5113071;28;20020;-79
2021/03/30 18:36:03;;;;;;;11.00;3.70;;;17.30;55.10;;;;;;5096648;28;20420;-79
2021/03/30 18:38:29;;;;;;;8.23;3.38;;;17.10;55.30;;;;;;5083983;28;20560;-80
2021/03/30 18:40:54;;;;;;;6.85;3.25;;;16.90;56.50;;;;;;5088925;28;20019;-79
2021/03/30 18:43:20;;;;;;;8.60;3.13;;;16.80;57.00;;;;;;5089469;28;20038;-79
2021/03/30 18:45:47;;;;;;;8.50;3.13;;;16.70;56.30;;;;;;5090795;28;20024;-78
2021/03/30 18:48:13;;;;;;;7.70;2.50;;;16.40;56.40;;;;;;5100661;28;20036;-81
2021/03/30 18:50:39;;;;;;;10.10;3.15;;;16.40;56.50;;;;;;5121918;28;20059;-79
2021/03/30 18:53:06;;;;;;;7.25;3.20;;;16.30;56.60;;;;;;5108807;28;20024;-78
2021/03/30 18:55:32;;;;;;;4.97;3.25;;;16.20;57.10;;;;;;5103813;28;20051;-78
